Time,TemperatureF,DewpointF,PressureIn,WindDirection,WindDirectionDegrees,WindSpeedMPH,WindSpeedGustMPH,Humidity,HourlyPrecipIn,Conditions,Clouds,dailyrainin,SoftwareType,DateUTC
2012-03-16 00:01:00,63.9,63.9,30.06,NNE,30,0.0,0.0,100,0.00,,,0.00,VWS V13.01,2012-03-16 05:01:00,
2012-03-16 00:06:00,63.9,63.9,30.06,NNE,30,0.0,0.0,100,0.00,,,0.00,VWS V13.01,2012-03-16 05:06:00,
2012-03-16 00:11:00,63.7,63.7,30.06,NNE,30,0.0,0.0,100,0.00,,,0.00,VWS V13.01,2012-03-16 05:11:00,
2012-03-16 00:16:00,63.3,63.3,30.06,NNE,30,0.0,0.0,100,0.00,,,0.00,VWS V13.01,2012-03-16 05:16:00,
2012-03-16 00:21:00,63.1,63.1,30.06,NNE,30,0.0,0.0,100,0.00,,,0.00,VWS V13.01,2012-03-16 05:21:00,
2012-03-16 00:26:00,62.8,62.8,30.06,NNE,30,0.0,0.0,100,0.00,,,0.00,VWS V13.01,2012-03-16 05:26:00,
2012-03-16 00:31:00,62.6,62.6,30.06,NNE,30,0.0,0.0,100,0.00,,,0.00,VWS V13.01,2012-03-16 05:31:00,
2012-03-16 00:36:00,62.2,62.2,30.06,NNE,30,0.0,0.0,100,0.00,,,0.00,VWS V13.01,2012-03-16 05:36:00,
2012-03-16 00:41:00,61.9,61.9,30.06,NNE,30,2.2,2.2,100,0.00,,,0.00,VWS V13.01,2012-03-16 05:41:00,
2012-03-16 00:46:00,61.7,61.7,30.06,NNE,30,2.2,2.2,100,0.00,,,0.00,VWS V13.01,2012-03-16 05:46:00,
2012-03-16 00:51:00,62.1,62.1,30.06,NNE,30,2.2,2.7,100,0.00,,,0.00,VWS V13.01,2012-03-16 05:51:00,
2012-03-16 00:56:00,61.9,61.9,30.06,NNE,30,0.0,0.0,100,0.00,,,0.00,VWS V13.01,2012-03-16 05:56:00,
2012-03-16 01:01:00,61.9,61.9,30.06,NNE,30,0.0,0.0,100,0.00,,,0.00,VWS V13.01,2012-03-16 06:01:00,
2012-03-16 01:06:00,61.9,61.9,30.06,NNE,30,0.0,0.0,100,0.00,,,0.00,VWS V13.01,2012-03-16 06:06:00,
2012-03-16 01:11:00,61.7,61.7,30.06,NNE,30,0.0,0.0,100,0.00,,,0.00,VWS V13.01,2012-03-16 06:11:00,
2012-03-16 01:16:00,61.7,61.7,30.03,NNE,30,0.0,0.0,100,0.00,,,0.00,VWS V13.01,2012-03-16 06:16:00,
2012-03-16 01:21:00,61.5,61.5,30.03,NNE,30,0.0,0.0,100,0.00,,,0.00,VWS V13.01,2012-03-16 06:21:00,
2012-03-16 01:26:00,61.3,61.3,30.03,NNE,30,0.0,0.0,100,0.00,,,0.00,VWS V13.01,2012-03-16 06:26:00,
2012-03-16 01:31:00,61.0,61.0,30.06,NNE,30,0.0,0.0,100,0.00,,,0.00,VWS V13.01,2012-03-16 06:31:00,
2012-03-16 01:36:00,60.6,60.6,30.06,NNE,30,0.0,0.0,100,0.00,,,0.00,VWS V13.01,2012-03-16 06:36:00,
2012-03-16 01:41:00,60.6,60.6,30.06,NNE,30,0.0,0.0,100,0.00,,,0.00,VWS V13.01,2012-03-16 06:41:00,
2012-03-16 01:46:00,60.4,60.4,30.06,NNE,30,0.0,0.0,100,0.00,,,0.00,VWS V13.01,2012-03-16 06:46:00,
2012-03-16 01:51:00,60.1,60.1,30.06,NNE,30,0.0,0.0,100,0.00,,,0.00,VWS V13.01,2012-03-16 06:51:00,
2012-03-16 01:56:00,59.9,59.9,30.06,NNE,30,0.0,0.0,100,0.00,,,0.00,VWS V13.01,2012-03-16 06:56:00,
2012-03-16 02:01:00,59.9,59.9,30.06,NNE,30,0.0,0.0,100,0.00,,,0.00,VWS V13.01,2012-03-16 07:01:00,
2012-03-16 02:06:00,60.1,60.1,30.06,NNE,30,0.0,0.0,100,0.00,,,0.00,VWS V13.01,2012-03-16 07:06:00,
2012-03-16 02:11:00,60.1,60.1,30.06,NNE,30,0.0,0.0,100,0.00,,,0.00,VWS V13.01,2012-03-16 07:11:00,
2012-03-16 02:16:00,60.3,60.3,30.03,NNE,30,0.0,0.0,100,0.00,,,0.00,VWS V13.01,2012-03-16 07:16:00,
2012-03-16 02:21:00,60.4,60.4,30.03,NNE,30,0.0,0.0,100,0.00,,,0.00,VWS V13.01,2012-03-16 07:21:00,
2012-03-16 02:26:00,60.8,60.8,30.03,NNE,30,0.0,0.0,100,0.00,,,0.00,VWS V13.01,2012-03-16 07:26:00,
2012-03-16 02:31:00,61.0,61.0,30.03,NNE,30,0.0,0.0,100,0.00,,,0.00,VWS V13.01,2012-03-16 07:31:00,
2012-03-16 02:36:00,61.0,61.0,30.03,NNE,30,0.0,0.0,100,0.00,,,0.00,VWS V13.01,2012-03-16 07:36:00,
2012-03-16 02:37:00,61.0,61.0,30.03,NNE,30,0.0,0.0,100,0.00,,,0.00,VWS V13.01,2012-03-16 07:37:00,
2012-03-16 02:42:00,61.0,61.0,30.03,NNE,30,0.0,0.0,100,0.00,,,0.00,VWS V13.01,2012-03-16 07:42:00,
2012-03-16 02:47:00,61.2,61.2,30.03,NNE,30,0.0,0.0,100,0.00,,,0.00,VWS V13.01,2012-03-16 07:47:00,
2012-03-16 02:52:00,61.3,61.3,30.03,NNE,30,0.0,0.0,100,0.00,,,0.00,VWS V13.01,2012-03-16 07:52:00,
2012-03-16 02:57:00,61.3,61.3,30.03,NNE,30,0.0,0.0,100,0.00,,,0.00,VWS V13.01,2012-03-16 07:57:00,
2012-03-16 03:02:00,61.5,61.5,30.03,NNE,30,0.0,0.0,100,0.00,,,0.00,VWS V13.01,2012-03-16 08:02:00,
2012-03-16 03:07:00,61.7,61.7,30.03,NNE,30,0.0,0.0,100,0.00,,,0.00,VWS V13.01,2012-03-16 08:07:00,
2012-03-16 03:12:00,61.7,61.7,30.03,NNE,30,0.0,0.0,100,0.00,,,0.00,VWS V13.01,2012-03-16 08:12:00,
2012-03-16 03:17:00,61.7,61.7,30.03,NNE,30,0.0,0.0,100,0.00,,,0.00,VWS V13.01,2012-03-16 08:17:00,
2012-03-16 03:22:00,61.5,61.5,30.03,NNE,30,0.0,0.0,100,0.00,,,0.00,VWS V13.01,2012-03-16 08:22:00,
2012-03-16 03:27:00,61.3,61.3,30.03,NNE,30,0.0,0.0,100,0.00,,,0.00,VWS V13.01,2012-03-16 08:27:00,
2012-03-16 03:32:00,61.2,61.2,30.03,NNE,30,0.0,0.0,100,0.00,,,0.00,VWS V13.01,2012-03-16 08:32:00,
2012-03-16 03:37:00,61.0,61.0,30.03,NNE,30,0.0,0.0,100,0.00,,,0.00,VWS V13.01,2012-03-16 08:37:00,
2012-03-16 03:42:00,61.0,61.0,30.03,NNE,30,0.0,0.0,100,0.00,,,0.00,VWS V13.01,2012-03-16 08:42:00,
2012-03-16 03:47:00,60.6,60.6,30.03,NNE,30,0.0,0.0,100,0.00,,,0.00,VWS V13.01,2012-03-16 08:47:00,
2012-03-16 03:52:00,60.4,60.4,30.03,NNE,30,0.0,0.0,100,0.00,,,0.00,VWS V13.01,2012-03-16 08:52:00,
2012-03-16 03:57:00,60.3,60.3,30.03,NE,52,0.0,0.0,100,0.00,,,0.00,VWS V13.01,2012-03-16 08:57:00,
2012-03-16 04:02:00,60.1,60.1,30.03,NE,52,0.0,0.0,100,0.00,,,0.00,VWS V13.01,2012-03-16 09:02:00,
2012-03-16 04:07:00,59.9,59.9,30.03,NE,52,0.0,0.0,100,0.00,,,0.00,VWS V13.01,2012-03-16 09:07:00,
2012-03-16 04:12:00,60.4,60.4,30.03,NE,52,0.0,0.0,100,0.00,,,0.00,VWS V13.01,2012-03-16 09:12:00,
2012-03-16 04:17:00,60.1,60.1,30.03,North,358,0.0,0.0,100,0.00,,,0.00,VWS V13.01,2012-03-16 09:17:00,
2012-03-16 04:22:00,60.1,60.1,30.03,North,352,0.0,0.0,100,0.00,,,0.00,VWS V13.01,2012-03-16 09:22:00,
2012-03-16 04:27:00,60.3,60.3,30.03,North,351,0.0,0.0,100,0.00,,,0.00,VWS V13.01,2012-03-16 09:27:00,
2012-03-16 04:32:00,60.3,60.3,30.03,NE,50,0.0,0.0,100,0.00,,,0.00,VWS V13.01,2012-03-16 09:32:00,
2012-03-16 04:37:00,60.3,60.3,30.03,NE,49,0.0,0.0,100,0.00,,,0.00,VWS V13.01,2012-03-16 09:37:00,
2012-03-16 04:42:00,60.4,60.4,30.03,NE,49,0.0,0.0,100,0.00,,,0.00,VWS V13.01,2012-03-16 09:42:00,
2012-03-16 04:47:00,60.6,60.6,30.03,NE,42,0.0,0.0,100,0.00,,,0.00,VWS V13.01,2012-03-16 09:47:00,
2012-03-16 04:52:00,60.6,60.6,30.03,NE,42,2.2,2.2,100,0.00,,,0.00,VWS V13.01,2012-03-16 09:52:00,
2012-03-16 04:57:00,61.0,61.0,30.03,NE,42,0.0,0.0,100,0.00,,,0.00,VWS V13.01,2012-03-16 09:57:00,
2012-03-16 05:02:00,61.0,61.0,30.03,NE,36,3.1,3.1,100,0.00,,,0.00,VWS V13.01,2012-03-16 10:02:00,
2012-03-16 05:07:00,61.2,61.2,30.03,NE,36,0.0,0.0,100,0.00,,,0.00,VWS V13.01,2012-03-16 10:07:00,
2012-03-16 05:12:00,61.3,61.3,30.03,NE,36,0.0,0.0,100,0.00,,,0.00,VWS V13.01,2012-03-16 10:12:00,
2012-03-16 05:17:00,61.3,61.3,30.06,NE,36,0.0,0.0,100,0.00,,,0.00,VWS V13.01,2012-03-16 10:17:00,
2012-03-16 05:22:00,61.3,61.3,30.06,NE,36,0.0,0.0,100,0.00,,,0.00,VWS V13.01,2012-03-16 10:22:00,
2012-03-16 05:26:00,61.5,61.5,30.06,NE,36,0.0,0.0,100,0.00,,,0.00,VWS V13.01,2012-03-16 10:26:00,
2012-03-16 05:32:00,61.5,61.5,30.06,NE,36,0.0,0.0,100,0.00,,,0.00,VWS V13.01,2012-03-16 10:32:00,
2012-03-16 05:37:00,61.7,61.7,30.06,NE,36,0.0,0.0,100,0.00,,,0.00,VWS V13.01,2012-03-16 10:37:00,
2012-03-16 05:42:00,61.9,61.9,30.06,NE,36,0.0,0.0,100,0.00,,,0.00,VWS V13.01,2012-03-16 10:42:00,
2012-03-16 05:47:00,62.1,62.1,30.06,North,1,0.0,0.0,100,0.00,,,0.00,VWS V13.01,2012-03-16 10:47:00,
2012-03-16 05:52:00,62.4,62.4,30.06,NE,42,0.0,0.0,100,0.00,,,0.00,VWS V13.01,2012-03-16 10:52:00,
2012-03-16 05:57:00,62.4,62.4,30.06,NW,318,0.0,0.0,100,0.00,,,0.00,VWS V13.01,2012-03-16 10:57:00,
2012-03-16 06:02:00,62.6,62.6,30.06,NW,318,0.0,0.0,100,0.00,,,0.00,VWS V13.01,2012-03-16 11:02:00,
2012-03-16 06:07:00,62.6,62.6,30.06,NNE,14,0.0,0.0,100,0.00,,,0.00,VWS V13.01,2012-03-16 11:07:00,
2012-03-16 06:12:00,62.6,62.6,30.06,NE,41,3.1,4.0,100,0.00,,,0.00,VWS V13.01,2012-03-16 11:12:00,
2012-03-16 06:17:00,62.4,62.4,30.06,ENE,67,0.0,0.0,100,0.00,,,0.00,VWS V13.01,2012-03-16 11:17:00,
2012-03-16 06:22:00,62.2,62.2,30.06,ENE,67,0.0,0.0,100,0.00,,,0.00,VWS V13.01,2012-03-16 11:22:00,
2012-03-16 06:27:00,62.2,62.2,30.06,ENE,78,0.0,0.0,100,0.00,,,0.00,VWS V13.01,2012-03-16 11:27:00,
2012-03-16 06:32:00,62.6,62.6,30.06,ENE,78,0.0,0.0,100,0.00,,,0.00,VWS V13.01,2012-03-16 11:32:00,
2012-03-16 06:37:00,62.6,62.6,30.06,ENE,78,0.0,0.0,100,0.00,,,0.00,VWS V13.01,2012-03-16 11:37:00,
2012-03-16 06:42:00,62.4,62.4,30.06,ENE,78,0.0,0.0,100,0.00,,,0.00,VWS V13.01,2012-03-16 11:42:00,
2012-03-16 06:47:00,62.4,62.4,30.06,ENE,78,0.0,0.0,100,0.00,,,0.00,VWS V13.01,2012-03-16 11:47:00,
2012-03-16 06:52:00,62.4,62.4,30.06,ENE,78,0.0,0.0,100,0.00,,,0.00,VWS V13.01,2012-03-16 11:52:00,
2012-03-16 06:57:00,62.2,62.2,30.06,North,9,0.0,0.0,100,0.00,,,0.00,VWS V13.01,2012-03-16 11:57:00,
2012-03-16 07:02:00,62.1,62.1,30.06,North,9,0.0,0.0,100,0.00,,,0.00,VWS V13.01,2012-03-16 12:02:00,
2012-03-16 07:07:00,61.9,61.9,30.06,North,9,0.0,0.0,100,0.00,,,0.00,VWS V13.01,2012-03-16 12:07:00,
2012-03-16 07:12:00,61.5,61.5,30.06,East,89,0.0,0.0,100,0.00,,,0.00,VWS V13.01,2012-03-16 12:12:00,
2012-03-16 07:17:00,61.5,61.5,30.06,East,89,0.0,0.0,100,0.00,,,0.00,VWS V13.01,2012-03-16 12:17:00,
2012-03-16 07:22:00,61.7,61.7,30.06,NE,48,3.1,3.1,100,0.00,,,0.00,VWS V13.01,2012-03-16 12:22:00,
2012-03-16 07:27:00,61.5,61.5,30.06,NE,51,2.7,2.7,100,0.00,,,0.00,VWS V13.01,2012-03-16 12:27:00,
2012-03-16 07:32:00,61.5,61.5,30.06,ENE,57,0.0,0.0,100,0.00,,,0.00,VWS V13.01,2012-03-16 12:32:00,
2012-03-16 07:37:00,61.3,61.3,30.06,NE,46,0.0,0.0,100,0.00,,,0.00,VWS V13.01,2012-03-16 12:37:00,
2012-03-16 07:42:00,61.5,61.5,30.06,NE,46,0.0,0.0,100,0.00,,,0.00,VWS V13.01,2012-03-16 12:42:00,
2012-03-16 07:47:00,61.5,61.5,30.09,NE,46,0.0,0.0,100,0.00,,,0.00,VWS V13.01,2012-03-16 12:47:00,
2012-03-16 07:52:00,61.7,61.7,30.09,NE,46,0.0,0.0,100,0.00,,,0.00,VWS V13.01,2012-03-16 12:52:00,
2012-03-16 07:57:00,61.7,61.7,30.09,NE,46,0.0,0.0,100,0.00,,,0.00,VWS V13.01,2012-03-16 12:57:00,
2012-03-16 08:02:00,61.7,61.7,30.09,NE,45,2.7,2.7,100,0.00,,,0.00,VWS V13.01,2012-03-16 13:02:00,
2012-03-16 08:07:00,61.7,61.7,30.09,NE,50,2.7,2.7,100,0.00,,,0.00,VWS V13.01,2012-03-16 13:07:00,
2012-03-16 08:12:00,61.9,61.9,30.09,ENE,61,0.0,0.0,100,0.00,,,0.00,VWS V13.01,2012-03-16 13:12:00,
2012-03-16 08:17:00,62.4,62.4,30.09,NNE,24,2.7,3.1,100,0.00,,,0.00,VWS V13.01,2012-03-16 13:17:00,
2012-03-16 08:22:00,62.8,62.8,30.09,NNE,12,0.0,0.0,100,0.00,,,0.00,VWS V13.01,2012-03-16 13:22:00,
2012-03-16 08:27:00,63.3,63.3,30.09,NE,34,0.0,0.0,100,0.00,,,0.00,VWS V13.01,2012-03-16 13:27:00,
2012-03-16 08:32:00,64.2,64.2,30.09,ENE,63,0.0,0.0,100,0.00,,,0.00,VWS V13.01,2012-03-16 13:32:00,
2012-03-16 08:37:00,64.9,64.9,30.09,NNE,28,3.1,3.1,100,0.00,,,0.00,VWS V13.01,2012-03-16 13:37:00,
2012-03-16 08:42:00,65.7,65.7,30.09,ENE,64,2.2,3.6,100,0.00,,,0.00,VWS V13.01,2012-03-16 13:42:00,
2012-03-16 08:47:00,66.0,65.4,30.09,NE,39,2.7,3.1,98,0.00,,,0.00,VWS V13.01,2012-03-16 13:47:00,
2012-03-16 08:52:00,66.0,65.2,30.09,NE,35,0.0,0.0,97,0.00,,,0.00,VWS V13.01,2012-03-16 13:52:00,
2012-03-16 08:57:00,66.0,65.2,30.09,NNE,15,3.6,3.6,97,0.00,,,0.00,VWS V13.01,2012-03-16 13:57:00,
2012-03-16 09:02:00,66.2,65.6,30.09,NE,48,2.2,2.7,98,0.00,,,0.00,VWS V13.01,2012-03-16 14:02:00,
2012-03-16 09:07:00,66.4,65.2,30.09,NE,46,3.1,3.1,96,0.00,,,0.00,VWS V13.01,2012-03-16 14:07:00,
2012-03-16 09:12:00,66.7,65.3,30.09,NNE,30,2.2,2.2,95,0.00,,,0.00,VWS V13.01,2012-03-16 14:12:00,
2012-03-16 09:17:00,67.1,64.7,30.09,NE,43,2.7,3.6,92,0.00,,,0.00,VWS V13.01,2012-03-16 14:17:00,
2012-03-16 09:22:00,67.5,65.1,30.09,NE,38,2.7,2.7,92,0.00,,,0.00,VWS V13.01,2012-03-16 14:22:00,
2012-03-16 09:27:00,67.6,64.6,30.09,NNE,25,3.1,3.6,90,0.00,,,0.00,VWS V13.01,2012-03-16 14:27:00,
2012-03-16 09:32:00,67.8,64.8,30.09,NNE,24,3.1,3.1,90,0.00,,,0.00,VWS V13.01,2012-03-16 14:32:00,
2012-03-16 09:37:00,68.0,64.3,30.09,NNE,30,3.1,3.6,88,0.00,,,0.00,VWS V13.01,2012-03-16 14:37:00,
2012-03-16 09:42:00,68.2,64.5,30.09,NNE,26,2.7,2.7,88,0.00,,,0.00,VWS V13.01,2012-03-16 14:42:00,
2012-03-16 09:47:00,68.7,64.7,30.09,NE,35,3.1,4.0,87,0.00,,,0.00,VWS V13.01,2012-03-16 14:47:00,
2012-03-16 09:52:00,69.3,63.9,30.09,NE,34,4.9,4.9,83,0.00,,,0.00,VWS V13.01,2012-03-16 14:52:00,
2012-03-16 09:57:00,69.8,64.4,30.09,NE,39,2.7,2.7,83,0.00,,,0.00,VWS V13.01,2012-03-16 14:57:00,
2012-03-16 10:02:00,70.7,64.2,30.09,NNE,24,0.0,3.6,80,0.00,,,0.00,VWS V13.01,2012-03-16 15:02:00,
2012-03-16 10:07:00,71.6,63.6,30.09,NNE,14,0.0,3.1,76,0.00,,,0.00,VWS V13.01,2012-03-16 15:07:00,
2012-03-16 10:12:00,72.1,63.8,30.09,ENE,64,2.7,2.7,75,0.00,,,0.00,VWS V13.01,2012-03-16 15:12:00,
2012-03-16 10:17:00,72.5,64.1,30.09,East,92,0.0,0.0,75,0.00,,,0.00,VWS V13.01,2012-03-16 15:17:00,
2012-03-16 10:22:00,72.5,63.8,30.09,SSE,153,0.0,0.0,74,0.00,,,0.00,VWS V13.01,2012-03-16 15:22:00,
2012-03-16 10:27:00,72.3,64.0,30.09,SSE,156,4.0,4.0,75,0.00,,,0.00,VWS V13.01,2012-03-16 15:27:00,
2012-03-16 10:32:00,72.0,64.0,30.09,SSW,209,0.0,0.0,76,0.00,,,0.00,VWS V13.01,2012-03-16 15:32:00,
2012-03-16 10:37:00,72.5,65.3,30.09,South,180,3.1,3.1,78,0.00,,,0.00,VWS V13.01,2012-03-16 15:37:00,
2012-03-16 10:42:00,72.5,64.1,30.09,West,272,2.7,3.1,75,0.00,,,0.00,VWS V13.01,2012-03-16 15:42:00,
2012-03-16 10:47:00,72.9,64.9,30.09,SSE,166,2.7,2.7,76,0.00,,,0.00,VWS V13.01,2012-03-16 15:47:00,
2012-03-16 10:52:00,73.0,64.3,30.09,SSE,165,4.5,4.9,74,0.00,,,0.00,VWS V13.01,2012-03-16 15:52:00,
2012-03-16 10:57:00,73.0,64.3,30.09,SE,133,3.1,5.4,74,0.00,,,0.00,VWS V13.01,2012-03-16 15:57:00,
2012-03-16 11:02:00,73.6,65.2,30.09,South,176,3.1,3.1,75,0.00,,,0.00,VWS V13.01,2012-03-16 16:02:00,
2012-03-16 11:07:00,73.8,64.6,30.09,WSW,247,3.6,3.6,73,0.00,,,0.00,VWS V13.01,2012-03-16 16:07:00,
2012-03-16 11:12:00,73.6,64.4,30.09,SW,231,2.7,2.7,73,0.00,,,0.00,VWS V13.01,2012-03-16 16:12:00,
2012-03-16 11:17:00,73.4,64.6,30.09,SW,235,4.0,4.9,74,0.00,,,0.00,VWS V13.01,2012-03-16 16:17:00,
2012-03-16 11:22:00,73.2,64.4,30.09,SSE,156,0.0,0.0,74,0.00,,,0.00,VWS V13.01,2012-03-16 16:22:00,
2012-03-16 11:27:00,73.2,65.2,30.09,SSW,205,3.1,4.0,76,0.00,,,0.00,VWS V13.01,2012-03-16 16:27:00,
2012-03-16 11:32:00,73.2,64.8,30.09,SSW,207,0.0,0.0,75,0.00,,,0.00,VWS V13.01,2012-03-16 16:32:00,
2012-03-16 11:37:00,73.2,64.8,30.09,SW,231,4.9,4.9,75,0.00,,,0.00,VWS V13.01,2012-03-16 16:37:00,
2012-03-16 11:42:00,73.4,64.6,30.09,WSW,253,0.0,2.2,74,0.00,,,0.00,VWS V13.01,2012-03-16 16:42:00,
2012-03-16 11:47:00,73.6,65.2,30.09,SSW,198,3.1,3.1,75,0.00,,,0.00,VWS V13.01,2012-03-16 16:47:00,
2012-03-16 11:52:00,73.9,65.1,30.09,SSE,157,2.7,2.7,74,0.00,,,0.00,VWS V13.01,2012-03-16 16:52:00,
2012-03-16 11:57:00,74.3,65.1,30.09,East,83,0.0,0.0,73,0.00,,,0.00,VWS V13.01,2012-03-16 16:57:00,
2012-03-16 12:02:00,75.2,64.8,30.06,SSE,155,5.8,5.8,70,0.00,,,0.00,VWS V13.01,2012-03-16 17:02:00,
2012-03-16 12:07:00,75.4,64.5,30.06,ESE,110,2.7,4.0,69,0.00,,,0.00,VWS V13.01,2012-03-16 17:07:00,
2012-03-16 12:12:00,75.2,64.3,30.06,South,170,0.0,0.0,69,0.00,,,0.00,VWS V13.01,2012-03-16 17:12:00,
2012-03-16 12:17:00,75.6,64.7,30.06,East,101,3.1,3.6,69,0.00,,,0.00,VWS V13.01,2012-03-16 17:17:00,
2012-03-16 12:22:00,75.4,64.1,30.06,ESE,116,3.1,4.9,68,0.00,,,0.00,VWS V13.01,2012-03-16 17:22:00,
2012-03-16 12:27:00,75.4,64.5,30.06,ENE,62,4.0,4.0,69,0.00,,,0.00,VWS V13.01,2012-03-16 17:27:00,
2012-03-16 12:32:00,75.7,64.9,30.06,ENE,68,3.6,4.0,69,0.00,,,0.00,VWS V13.01,2012-03-16 17:32:00,
2012-03-16 12:37:00,76.3,64.1,30.06,NE,51,0.0,0.0,66,0.00,,,0.00,VWS V13.01,2012-03-16 17:37:00,
2012-03-16 12:42:00,76.8,64.6,30.06,East,93,3.6,5.8,66,0.00,,,0.00,VWS V13.01,2012-03-16 17:42:00,
2012-03-16 12:47:00,77.0,64.3,30.06,ENE,72,4.9,4.9,65,0.00,,,0.00,VWS V13.01,2012-03-16 17:47:00,
2012-03-16 12:52:00,77.0,64.3,30.06,SSE,153,2.7,3.1,65,0.00,,,0.00,VWS V13.01,2012-03-16 17:52:00,
2012-03-16 12:57:00,76.5,63.8,30.06,South,179,0.0,0.0,65,0.00,,,0.00,VWS V13.01,2012-03-16 17:57:00,
2012-03-16 13:02:00,76.5,64.3,30.06,SSE,156,0.0,0.0,66,0.00,,,0.00,VWS V13.01,2012-03-16 18:02:00,
2012-03-16 13:07:00,76.5,63.8,30.06,SW,234,3.6,4.0,65,0.00,,,0.00,VWS V13.01,2012-03-16 18:07:00,
2012-03-16 13:12:00,76.8,64.2,30.06,WSW,246,2.7,2.7,65,0.00,,,0.00,VWS V13.01,2012-03-16 18:12:00,
2012-03-16 13:17:00,77.2,64.1,30.06,SW,233,5.8,5.8,64,0.00,,,0.00,VWS V13.01,2012-03-16 18:17:00,
2012-03-16 13:22:00,77.0,63.5,30.06,SSW,203,6.3,7.6,63,0.00,,,0.00,VWS V13.01,2012-03-16 18:22:00,
2012-03-16 13:27:00,76.8,63.3,30.06,South,186,5.8,8.7,63,0.00,,,0.00,VWS V13.01,2012-03-16 18:27:00,
2012-03-16 13:32:00,76.6,63.1,30.06,SSE,168,4.9,4.9,63,0.00,,,0.00,VWS V13.01,2012-03-16 18:32:00,
2012-03-16 13:37:00,76.8,64.2,30.06,SW,222,0.0,2.7,65,0.00,,,0.00,VWS V13.01,2012-03-16 18:37:00,
2012-03-16 13:42:00,77.0,63.0,30.06,SSE,159,2.7,2.7,62,0.00,,,0.00,VWS V13.01,2012-03-16 18:42:00,
2012-03-16 13:47:00,77.0,63.0,30.06,SE,136,2.2,2.2,62,0.00,,,0.00,VWS V13.01,2012-03-16 18:47:00,
2012-03-16 13:52:00,77.0,63.0,30.06,ESE,117,2.7,2.7,62,0.00,,,0.00,VWS V13.01,2012-03-16 18:52:00,
2012-03-16 13:57:00,77.2,63.2,30.06,East,89,3.1,4.0,62,0.00,,,0.00,VWS V13.01,2012-03-16 18:57:00,
2012-03-16 14:02:00,77.4,63.3,30.03,ESE,113,0.0,2.7,62,0.00,,,0.00,VWS V13.01,2012-03-16 19:02:00,
2012-03-16 14:07:00,77.5,63.5,30.03,South,178,0.0,0.0,62,0.00,,,0.00,VWS V13.01,2012-03-16 19:07:00,
2012-03-16 14:12:00,77.7,64.1,30.03,ENE,76,2.7,2.7,63,0.00,,,0.00,VWS V13.01,2012-03-16 19:12:00,
2012-03-16 14:17:00,78.1,64.0,30.03,ENE,76,0.0,2.7,62,0.00,,,0.00,VWS V13.01,2012-03-16 19:17:00,
2012-03-16 14:22:00,78.4,63.9,30.03,East,88,2.7,2.7,61,0.00,,,0.00,VWS V13.01,2012-03-16 19:22:00,
2012-03-16 14:27:00,78.4,64.3,30.03,ENE,75,0.0,0.0,62,0.00,,,0.00,VWS V13.01,2012-03-16 19:27:00,
2012-03-16 14:32:00,78.4,63.9,30.00,East,92,2.7,3.1,61,0.00,,,0.00,VWS V13.01,2012-03-16 19:32:00,
2012-03-16 14:37:00,78.8,64.2,30.00,SSE,160,0.0,0.0,61,0.00,,,0.00,VWS V13.01,2012-03-16 19:37:00,
2012-03-16 14:42:00,79.3,63.8,30.00,SW,228,2.7,2.7,59,0.00,,,0.00,VWS V13.01,2012-03-16 19:42:00,
2012-03-16 14:47:00,79.3,62.8,30.03,WSW,252,2.7,3.1,57,0.00,,,0.00,VWS V13.01,2012-03-16 19:47:00,
2012-03-16 14:52:00,79.3,62.8,30.03,NW,317,0.0,3.1,57,0.00,,,0.00,VWS V13.01,2012-03-16 19:52:00,
2012-03-16 14:57:00,79.7,62.6,30.03,WSW,255,3.6,3.6,56,0.00,,,0.00,VWS V13.01,2012-03-16 19:57:00,
2012-03-16 15:02:00,79.2,62.6,30.00,WSW,255,2.2,2.7,57,0.00,,,0.00,VWS V13.01,2012-03-16 20:02:00,
2012-03-16 15:07:00,78.6,63.1,30.00,WSW,256,0.0,0.0,59,0.00,,,0.00,VWS V13.01,2012-03-16 20:07:00,
2012-03-16 15:12:00,78.8,62.3,30.00,NE,40,3.1,3.1,57,0.00,,,0.00,VWS V13.01,2012-03-16 20:12:00,
2012-03-16 15:17:00,79.2,62.6,30.00,NNE,17,0.0,0.0,57,0.00,,,0.00,VWS V13.01,2012-03-16 20:17:00,
2012-03-16 15:22:00,80.1,63.0,30.00,NW,317,3.6,4.0,56,0.00,,,0.00,VWS V13.01,2012-03-16 20:22:00,
2012-03-16 15:27:00,80.4,63.3,30.00,West,266,4.5,4.5,56,0.00,,,0.00,VWS V13.01,2012-03-16 20:27:00,
2012-03-16 15:32:00,80.8,62.6,30.00,WSW,257,3.1,5.4,54,0.00,,,0.00,VWS V13.01,2012-03-16 20:32:00,
2012-03-16 15:37:00,81.3,63.6,30.00,West,263,3.1,3.6,55,0.00,,,0.00,VWS V13.01,2012-03-16 20:37:00,
2012-03-16 15:42:00,81.3,63.1,30.00,WSW,257,5.8,8.1,54,0.00,,,0.00,VWS V13.01,2012-03-16 20:42:00,
2012-03-16 15:47:00,81.1,64.0,30.00,SSW,211,2.7,3.6,56,0.00,,,0.00,VWS V13.01,2012-03-16 20:47:00,
2012-03-16 15:52:00,80.8,62.6,30.00,WSW,250,5.4,5.8,54,0.00,,,0.00,VWS V13.01,2012-03-16 20:52:00,
2012-03-16 15:57:00,80.6,63.0,30.00,SW,232,3.1,3.1,55,0.00,,,0.00,VWS V13.01,2012-03-16 20:57:00,
2012-03-16 16:02:00,81.0,62.8,30.00,SW,233,3.1,3.6,54,0.00,,,0.00,VWS V13.01,2012-03-16 21:02:00,
2012-03-16 16:07:00,81.3,64.1,30.00,West,263,3.6,3.6,56,0.00,,,0.00,VWS V13.01,2012-03-16 21:07:00,
2012-03-16 16:12:00,81.3,62.6,30.00,WSW,254,5.8,5.8,53,0.00,,,0.00,VWS V13.01,2012-03-16 21:12:00,
2012-03-16 16:17:00,81.0,62.8,30.00,South,188,2.7,3.6,54,0.00,,,0.00,VWS V13.01,2012-03-16 21:17:00,
2012-03-16 16:22:00,81.5,63.3,30.00,East,79,0.0,0.0,54,0.00,,,0.00,VWS V13.01,2012-03-16 21:22:00,
2012-03-16 16:27:00,82.6,63.7,30.00,SSE,153,5.8,5.8,53,0.00,,,0.00,VWS V13.01,2012-03-16 21:27:00,
2012-03-16 16:32:00,81.9,62.5,30.00,SE,143,3.1,3.1,52,0.00,,,0.00,VWS V13.01,2012-03-16 21:32:00,
2012-03-16 16:37:00,81.3,62.6,30.00,East,85,2.2,4.0,53,0.00,,,0.00,VWS V13.01,2012-03-16 21:37:00,
2012-03-16 16:42:00,81.9,63.1,30.00,West,273,3.6,4.0,53,0.00,,,0.00,VWS V13.01,2012-03-16 21:42:00,
2012-03-16 16:47:00,82.0,62.7,29.97,NE,56,2.2,3.6,52,0.00,,,0.00,VWS V13.01,2012-03-16 21:47:00,
2012-03-16 16:52:00,81.9,62.5,29.97,ESE,116,2.7,2.7,52,0.00,,,0.00,VWS V13.01,2012-03-16 21:52:00,
2012-03-16 16:57:00,81.7,62.4,29.97,SSE,168,4.9,5.4,52,0.00,,,0.00,VWS V13.01,2012-03-16 21:57:00,
2012-03-16 17:02:00,81.1,61.9,29.97,SSE,155,2.7,2.7,52,0.00,,,0.00,VWS V13.01,2012-03-16 22:02:00,
2012-03-16 17:07:00,80.8,61.5,29.97,South,169,2.2,4.0,52,0.00,,,0.00,VWS V13.01,2012-03-16 22:07:00,
2012-03-16 17:12:00,80.4,62.3,29.97,SSE,165,3.1,3.1,54,0.00,,,0.00,VWS V13.01,2012-03-16 22:12:00,
2012-03-16 17:17:00,80.2,61.6,29.97,SSE,150,3.1,3.6,53,0.00,,,0.00,VWS V13.01,2012-03-16 22:17:00,
2012-03-16 17:22:00,80.1,61.9,29.97,SE,140,3.6,3.6,54,0.00,,,0.00,VWS V13.01,2012-03-16 22:22:00,
2012-03-16 17:27:00,80.1,61.9,29.97,SE,130,4.9,4.9,54,0.00,,,0.00,VWS V13.01,2012-03-16 22:27:00,
2012-03-16 17:32:00,79.9,62.3,29.97,East,84,3.1,3.1,55,0.00,,,0.00,VWS V13.01,2012-03-16 22:32:00,
2012-03-16 17:37:00,79.7,62.1,29.97,ESE,115,3.1,3.1,55,0.00,,,0.00,VWS V13.01,2012-03-16 22:37:00,
2012-03-16 17:42:00,79.5,61.4,29.97,SE,125,3.1,4.9,54,0.00,,,0.00,VWS V13.01,2012-03-16 22:42:00,
2012-03-16 17:47:00,79.7,61.6,29.97,East,96,4.0,5.8,54,0.00,,,0.00,VWS V13.01,2012-03-16 22:47:00,
2012-03-16 17:52:00,80.1,61.4,29.97,ESE,109,7.6,7.6,53,0.00,,,0.00,VWS V13.01,2012-03-16 22:52:00,
2012-03-16 17:57:00,80.1,61.4,29.97,ESE,121,4.0,4.0,53,0.00,,,0.00,VWS V13.01,2012-03-16 22:57:00,
2012-03-16 18:02:00,79.9,61.2,29.97,SE,136,3.1,4.0,53,0.00,,,0.00,VWS V13.01,2012-03-16 23:02:00,
2012-03-16 18:07:00,79.9,61.2,29.97,SE,143,4.9,5.8,53,0.00,,,0.00,VWS V13.01,2012-03-16 23:07:00,
2012-03-16 18:12:00,79.9,60.7,29.97,South,173,4.5,8.3,52,0.00,,,0.00,VWS V13.01,2012-03-16 23:12:00,
2012-03-16 18:17:00,79.9,60.7,29.97,SSW,207,6.3,6.3,52,0.00,,,0.00,VWS V13.01,2012-03-16 23:17:00,
2012-03-16 18:22:00,80.1,60.9,29.97,South,179,3.6,6.3,52,0.00,,,0.00,VWS V13.01,2012-03-16 23:22:00,
2012-03-16 18:27:00,80.1,60.9,29.97,SSE,162,7.6,8.1,52,0.00,,,0.00,VWS V13.01,2012-03-16 23:27:00,
2012-03-16 18:32:00,79.9,60.7,29.97,SSE,166,7.6,8.7,52,0.00,,,0.00,VWS V13.01,2012-03-16 23:32:00,
2012-03-16 18:37:00,79.3,60.2,29.97,South,180,5.4,5.4,52,0.00,,,0.00,VWS V13.01,2012-03-16 23:37:00,
2012-03-16 18:42:00,79.2,60.0,29.97,SSE,161,7.6,7.6,52,0.00,,,0.00,VWS V13.01,2012-03-16 23:42:00,
2012-03-16 18:47:00,79.0,59.9,29.97,South,179,5.4,9.6,52,0.00,,,0.00,VWS V13.01,2012-03-16 23:47:00,
2012-03-16 18:52:00,78.6,59.5,29.97,South,175,5.8,8.1,52,0.00,,,0.00,VWS V13.01,2012-03-16 23:52:00,
2012-03-16 18:57:00,78.3,59.7,29.97,South,185,4.0,6.3,53,0.00,,,0.00,VWS V13.01,2012-03-16 23:57:00,
2012-03-16 19:02:00,77.9,59.4,29.97,South,184,3.1,4.0,53,0.00,,,0.00,VWS V13.01,2012-03-17 00:02:00,
2012-03-16 19:07:00,77.7,59.2,29.97,ESE,110,5.8,6.3,53,0.00,,,0.00,VWS V13.01,2012-03-17 00:07:00,
2012-03-16 19:12:00,77.5,59.1,29.97,SSE,150,4.0,4.0,53,0.00,,,0.00,VWS V13.01,2012-03-17 00:12:00,
2012-03-16 19:17:00,77.2,58.7,30.00,SE,143,3.1,3.1,53,0.00,,,0.00,VWS V13.01,2012-03-17 00:17:00,
2012-03-16 19:22:00,77.0,59.1,30.00,SE,133,3.1,5.8,54,0.00,,,0.00,VWS V13.01,2012-03-17 00:22:00,
2012-03-16 19:27:00,76.8,58.9,30.00,SE,143,4.0,5.4,54,0.00,,,0.00,VWS V13.01,2012-03-17 00:27:00,
2012-03-16 19:32:00,76.5,58.6,30.00,SSE,158,2.7,3.6,54,0.00,,,0.00,VWS V13.01,2012-03-17 00:32:00,
2012-03-16 19:37:00,76.3,58.9,30.00,SE,138,2.2,4.9,55,0.00,,,0.00,VWS V13.01,2012-03-17 00:37:00,
2012-03-16 19:42:00,75.9,58.6,30.00,SSE,147,0.0,2.2,55,0.00,,,0.00,VWS V13.01,2012-03-17 00:42:00,
2012-03-16 19:47:00,75.7,58.4,30.00,SE,143,3.1,3.1,55,0.00,,,0.00,VWS V13.01,2012-03-17 00:47:00,
2012-03-16 19:52:00,75.4,58.6,30.00,SE,128,2.7,4.0,56,0.00,,,0.00,VWS V13.01,2012-03-17 00:52:00,
2012-03-16 19:57:00,75.2,58.4,30.00,SSE,164,3.1,3.1,56,0.00,,,0.00,VWS V13.01,2012-03-17 00:57:00,
2012-03-16 20:02:00,75.0,58.8,29.97,ESE,119,2.2,2.2,57,0.00,,,0.00,VWS V13.01,2012-03-17 01:02:00,
2012-03-16 20:07:00,74.7,58.4,29.97,ESE,120,3.1,3.1,57,0.00,,,0.00,VWS V13.01,2012-03-17 01:07:00,
2012-03-16 20:12:00,74.5,58.8,29.97,SE,143,2.7,3.1,58,0.00,,,0.00,VWS V13.01,2012-03-17 01:12:00,
2012-03-16 20:17:00,74.3,58.6,30.00,SSE,160,0.0,0.0,58,0.00,,,0.00,VWS V13.01,2012-03-17 01:17:00,
2012-03-16 20:22:00,74.1,58.4,30.00,ESE,116,4.9,4.9,58,0.00,,,0.00,VWS V13.01,2012-03-17 01:22:00,
2012-03-16 20:27:00,73.9,58.7,30.00,SE,128,4.0,4.0,59,0.00,,,0.00,VWS V13.01,2012-03-17 01:27:00,
2012-03-16 20:32:00,73.9,58.7,30.00,ESE,112,2.2,3.1,59,0.00,,,0.00,VWS V13.01,2012-03-17 01:32:00,
2012-03-16 20:37:00,73.8,58.5,30.00,ESE,107,3.1,3.1,59,0.00,,,0.00,VWS V13.01,2012-03-17 01:37:00,
2012-03-16 20:42:00,73.4,58.7,30.00,ENE,73,3.1,3.1,60,0.00,,,0.00,VWS V13.01,2012-03-17 01:42:00,
2012-03-16 20:47:00,73.2,59.0,30.00,East,88,3.1,3.6,61,0.00,,,0.00,VWS V13.01,2012-03-17 01:47:00,
2012-03-16 20:52:00,73.0,59.3,30.00,ENE,57,2.7,2.7,62,0.00,,,0.00,VWS V13.01,2012-03-17 01:52:00,
2012-03-16 20:57:00,72.7,59.4,30.00,ENE,78,2.7,3.1,63,0.00,,,0.00,VWS V13.01,2012-03-17 01:57:00,
2012-03-16 21:02:00,72.3,59.0,30.00,NE,45,0.0,0.0,63,0.00,,,0.00,VWS V13.01,2012-03-17 02:02:00,
2012-03-16 21:07:00,71.8,59.4,30.00,ENE,64,2.2,2.7,65,0.00,,,0.00,VWS V13.01,2012-03-17 02:07:00,
2012-03-16 21:12:00,71.4,59.0,30.00,NE,54,2.7,5.4,65,0.00,,,0.00,VWS V13.01,2012-03-17 02:12:00,
2012-03-16 21:17:00,71.1,59.1,30.03,East,80,3.6,3.6,66,0.00,,,0.00,VWS V13.01,2012-03-17 02:17:00,
2012-03-16 21:22:00,71.1,58.7,30.03,ENE,78,2.7,3.6,65,0.00,,,0.00,VWS V13.01,2012-03-17 02:22:00,
2012-03-16 21:27:00,71.1,59.1,30.03,NNE,33,2.2,3.6,66,0.00,,,0.00,VWS V13.01,2012-03-17 02:27:00,
2012-03-16 21:32:00,71.1,59.1,30.03,ENE,64,2.2,2.7,66,0.00,,,0.00,VWS V13.01,2012-03-17 02:32:00,
2012-03-16 21:37:00,70.9,59.4,30.03,NE,47,0.0,3.1,67,0.00,,,0.00,VWS V13.01,2012-03-17 02:37:00,
2012-03-16 21:42:00,70.3,59.3,30.03,NE,48,0.0,0.0,68,0.00,,,0.00,VWS V13.01,2012-03-17 02:42:00,
2012-03-16 21:47:00,69.6,59.4,30.03,NE,49,0.0,0.0,70,0.00,,,0.00,VWS V13.01,2012-03-17 02:47:00,
2012-03-16 21:52:00,68.4,60.1,30.03,NNE,14,0.0,0.0,75,0.00,,,0.00,VWS V13.01,2012-03-17 02:52:00,
2012-03-16 21:57:00,67.6,60.2,30.03,North,9,0.0,2.2,77,0.00,,,0.00,VWS V13.01,2012-03-17 02:57:00,
2012-03-16 22:01:00,66.9,60.6,30.03,North,9,2.2,2.2,80,0.00,,,0.00,VWS V13.01,2012-03-17 03:01:00,
2012-03-16 22:06:00,66.4,61.1,30.03,North,9,0.0,2.2,83,0.00,,,0.00,VWS V13.01,2012-03-17 03:06:00,
2012-03-16 22:11:00,66.0,61.4,30.03,North,9,2.2,2.7,85,0.00,,,0.00,VWS V13.01,2012-03-17 03:11:00,
2012-03-16 22:16:00,65.7,61.4,30.03,North,9,0.0,0.0,86,0.00,,,0.00,VWS V13.01,2012-03-17 03:16:00,
2012-03-16 22:21:00,65.7,61.4,30.03,North,9,0.0,0.0,86,0.00,,,0.00,VWS V13.01,2012-03-17 03:21:00,
2012-03-16 22:27:00,65.7,61.4,30.03,North,9,0.0,0.0,86,0.00,,,0.00,VWS V13.01,2012-03-17 03:27:00,
2012-03-16 22:32:00,65.5,61.5,30.03,North,9,0.0,0.0,87,0.00,,,0.00,VWS V13.01,2012-03-17 03:32:00,
2012-03-16 22:37:00,65.1,61.2,30.03,North,350,0.0,0.0,87,0.00,,,0.00,VWS V13.01,2012-03-17 03:37:00,
2012-03-16 22:42:00,65.1,61.2,30.03,North,350,0.0,0.0,87,0.00,,,0.00,VWS V13.01,2012-03-17 03:42:00,
2012-03-16 22:47:00,65.1,61.2,30.03,NE,46,2.7,2.7,87,0.00,,,0.00,VWS V13.01,2012-03-17 03:47:00,
2012-03-16 22:52:00,64.8,61.5,30.03,NE,55,2.7,2.7,89,0.00,,,0.00,VWS V13.01,2012-03-17 03:52:00,
2012-03-16 22:57:00,64.2,61.2,30.03,NE,55,0.0,2.7,90,0.00,,,0.00,VWS V13.01,2012-03-17 03:57:00,
2012-03-16 23:00:00,63.9,61.5,30.03,NNE,28,3.6,3.6,92,0.00,,,0.00,VWS V13.01,2012-03-17 04:00:00,
2012-03-16 23:01:00,63.9,61.5,30.03,NNE,29,0.0,2.2,92,0.00,,,0.00,VWS V13.01,2012-03-17 04:01:00,
2012-03-16 23:06:00,63.3,61.3,30.03,NNE,28,2.2,2.2,93,0.00,,,0.00,VWS V13.01,2012-03-17 04:06:00,
2012-03-16 23:11:00,63.0,61.5,30.03,North,3,0.0,0.0,95,0.00,,,0.00,VWS V13.01,2012-03-17 04:11:00,
2012-03-16 23:16:00,62.8,61.3,30.03,North,3,0.0,0.0,95,0.00,,,0.00,VWS V13.01,2012-03-17 04:16:00,
2012-03-16 23:21:00,62.8,61.3,30.03,North,3,0.0,0.0,95,0.00,,,0.00,VWS V13.01,2012-03-17 04:21:00,
2012-03-16 23:26:00,63.0,61.5,30.03,North,3,0.0,0.0,95,0.00,,,0.00,VWS V13.01,2012-03-17 04:26:00,
2012-03-16 23:31:00,62.8,61.3,30.03,NE,34,2.2,2.2,95,0.00,,,0.00,VWS V13.01,2012-03-17 04:31:00,
2012-03-16 23:36:00,62.6,61.5,30.03,NE,42,2.7,3.6,96,0.00,,,0.00,VWS V13.01,2012-03-17 04:36:00,
2012-03-16 23:41:00,62.4,61.8,30.03,ENE,61,2.2,2.2,98,0.00,,,0.00,VWS V13.01,2012-03-17 04:41:00,
2012-03-16 23:46:00,62.4,62.1,30.03,ENE,59,2.2,2.2,99,0.00,,,0.00,VWS V13.01,2012-03-17 04:46:00,
2012-03-16 23:51:00,62.6,61.7,30.03,NE,42,2.2,3.1,97,0.00,,,0.00,VWS V13.01,2012-03-17 04:51:00,
2012-03-16 23:56:00,62.4,61.8,30.03,NE,42,2.2,2.2,98,0.00,,,0.00,VWS V13.01,2012-03-17 04:56:00,